createdAt,value
2022-11-15T00:02:44.176Z,83.84
2022-11-15T00:08:10.585Z,83.89
2022-11-15T00:13:37.116Z,83.86
2022-11-15T00:19:04.617Z,83.91
2022-11-15T00:24:31.505Z,83.92
2022-11-15T00:29:58.355Z,83.92
2022-11-15T00:35:25.542Z,83.94
2022-11-15T00:40:52.243Z,84.05
2022-11-15T00:46:20.633Z,84.01
2022-11-15T00:51:45.917Z,83.89
2022-11-15T00:57:12.736Z,83.84
2022-11-15T01:02:39.469Z,83.98
2022-11-15T01:08:06.257Z,84.03
2022-11-15T01:13:36.149Z,83.97
2022-11-15T01:19:02.238Z,84.10
2022-11-15T01:24:28.393Z,84.11
2022-11-15T01:29:54.806Z,83.97
2022-11-15T01:35:21.297Z,84.14
2022-11-15T01:40:47.583Z,84.00
2022-11-15T01:46:25.992Z,84.08
2022-11-15T01:51:52.875Z,84.17
2022-11-15T01:57:18.921Z,84.19
2022-11-15T02:02:45.408Z,84.22
2022-11-15T02:08:20.979Z,84.26
2022-11-15T02:13:48.473Z,84.35
2022-11-15T02:19:30.953Z,84.23
2022-11-15T02:25:27.989Z,84.34
2022-11-15T02:31:02.175Z,84.40
2022-11-15T02:36:37.733Z,84.30
2022-11-15T02:42:29.957Z,84.18
2022-11-15T02:48:00.584Z,84.22
2022-11-15T02:53:29.735Z,84.41
2022-11-15T02:59:16.064Z,84.45
2022-11-15T03:04:47.198Z,84.69
2022-11-15T03:10:20.249Z,84.51
2022-11-15T03:15:53.193Z,84.82
2022-11-15T03:21:23.364Z,84.56
2022-11-15T03:26:50.852Z,84.85
2022-11-15T03:32:21.456Z,84.94
2022-11-15T03:37:52.802Z,84.88
2022-11-15T03:43:32.971Z,84.60
2022-11-15T03:49:08.491Z,84.55
2022-11-15T03:54:34.794Z,84.70
2022-11-15T04:00:01.156Z,84.77
2022-11-15T04:05:27.694Z,84.83
2022-11-15T04:10:55.601Z,84.75
2022-11-15T04:16:22.133Z,84.86
2022-11-15T04:22:06.262Z,84.94
2022-11-15T04:27:32.253Z,84.93
2022-11-15T04:32:58.405Z,84.95
2022-11-15T04:38:24.966Z,84.83
2022-11-15T04:43:51.403Z,84.83
2022-11-15T04:49:18.932Z,84.93
2022-11-15T04:54:45.910Z,84.81
2022-11-15T05:00:15.283Z,85.00
2022-11-15T05:05:42.041Z,84.99
2022-11-15T05:11:08.660Z,85.12
2022-11-15T05:16:35.301Z,85.01
2022-11-15T05:22:01.748Z,84.98
2022-11-15T05:27:28.289Z,85.12
2022-11-15T05:32:55.623Z,85.12
2022-11-15T05:38:22.029Z,84.97
2022-11-15T05:43:50.164Z,85.04
2022-11-15T05:49:20.358Z,85.01
2022-11-15T05:54:47.478Z,84.93
2022-11-15T06:00:16.077Z,85.07
2022-11-15T06:05:41.050Z,84.92
2022-11-15T06:11:11.218Z,84.91
2022-11-15T06:16:37.950Z,84.99
2022-11-15T06:22:04.557Z,85.25
2022-11-15T06:27:30.954Z,85.07
2022-11-15T06:33:03.491Z,85.13
2022-11-15T06:38:30.235Z,85.45
2022-11-15T06:43:57.341Z,85.45
2022-11-15T06:49:23.669Z,85.32
2022-11-15T06:54:50.117Z,85.44
2022-11-15T07:00:22.000Z,85.13
2022-11-15T07:05:56.842Z,85.16
2022-11-15T07:11:23.420Z,85.27
2022-11-15T07:16:49.894Z,85.08
2022-11-15T07:22:16.162Z,85.14
2022-11-15T07:27:42.443Z,85.14
2022-11-15T07:33:08.750Z,85.15
2022-11-15T07:38:42.192Z,84.93
2022-11-15T07:44:09.997Z,84.76
2022-11-15T07:49:36.573Z,85.18
2022-11-15T07:55:03.082Z,85.29
2022-11-15T08:00:29.686Z,85.11
2022-11-15T08:05:59.449Z,85.22
2022-11-15T08:11:28.467Z,85.37
2022-11-15T08:16:56.547Z,85.36
2022-11-15T08:22:25.416Z,85.29
2022-11-15T08:27:55.462Z,85.25
2022-11-15T08:33:22.096Z,84.89
2022-11-15T08:38:48.928Z,84.95
2022-11-15T08:44:15.350Z,84.99
2022-11-15T08:49:42.245Z,85.08
2022-11-15T08:55:10.387Z,85.16
2022-11-15T09:00:41.310Z,84.64
2022-11-15T09:06:08.078Z,84.80
2022-11-15T09:11:35.309Z,84.75
2022-11-15T09:17:02.905Z,84.75
2022-11-15T09:22:29.715Z,84.69
2022-11-15T09:27:56.443Z,84.86
2022-11-15T09:33:22.602Z,84.99
2022-11-15T09:38:49.231Z,85.04
2022-11-15T09:44:41.106Z,84.89
2022-11-15T09:50:14.199Z,85.12
2022-11-15T09:55:23.708Z,84.99
2022-11-15T10:00:52.710Z,84.88
2022-11-15T10:06:04.814Z,84.98
2022-11-15T10:17:09.796Z,85.16
2022-11-15T10:22:27.094Z,85.21
2022-11-15T10:27:35.459Z,85.21
2022-11-15T10:32:44.997Z,85.28
2022-11-15T10:37:52.953Z,85.06
2022-11-15T10:43:08.511Z,85.29
2022-11-15T10:48:29.291Z,85.20
2022-11-15T10:53:44.171Z,85.40
2022-11-15T10:58:55.666Z,85.11
2022-11-15T11:04:05.955Z,85.19
2022-11-15T11:09:31.193Z,85.12
2022-11-15T11:14:40.728Z,85.07
2022-11-15T11:19:59.255Z,85.08
2022-11-15T11:25:20.649Z,85.17
2022-11-15T11:30:38.602Z,85.02
2022-11-15T11:35:57.603Z,85.14
2022-11-15T11:41:16.685Z,85.10
2022-11-15T11:46:49.849Z,85.32
2022-11-15T11:52:04.635Z,85.25
2022-11-15T11:57:23.863Z,85.35
2022-11-15T12:02:36.794Z,85.44
2022-11-15T12:07:47.536Z,85.40
2022-11-15T12:13:02.819Z,85.34
2022-11-15T12:18:16.399Z,85.28
2022-11-15T12:23:29.995Z,85.53
2022-11-15T12:29:04.384Z,85.57
2022-11-15T12:34:37.859Z,85.26
2022-11-15T12:40:21.846Z,85.02
2022-11-15T12:45:32.397Z,85.07
2022-11-15T12:51:00.051Z,85.21
2022-11-15T12:56:27.526Z,85.31
2022-11-15T13:01:59.441Z,85.03
2022-11-15T13:07:09.739Z,85.02
2022-11-15T13:12:53.983Z,84.87
2022-11-15T13:18:21.576Z,84.95
2022-11-15T13:23:29.635Z,84.95
2022-11-15T13:28:38.623Z,84.86
2022-11-15T13:33:46.989Z,84.94
2022-11-15T13:39:03.945Z,84.93
2022-11-15T13:44:23.547Z,84.80
2022-11-15T13:49:34.875Z,85.11
2022-11-15T13:54:47.265Z,85.02
2022-11-15T13:59:57.832Z,84.98
2022-11-15T14:05:16.615Z,84.98
2022-11-15T14:10:32.186Z,84.85
2022-11-15T14:15:41.759Z,85.05
2022-11-15T14:20:49.490Z,85.09
2022-11-15T14:25:56.328Z,85.19
2022-11-15T14:31:07.211Z,85.00
2022-11-15T14:36:18.289Z,84.93
2022-11-15T14:41:27.645Z,84.93
2022-11-15T14:46:35.300Z,84.97
2022-11-15T14:51:43.241Z,85.02
2022-11-15T14:56:50.840Z,84.95
2022-11-15T15:02:00.290Z,84.95
2022-11-15T15:07:08.254Z,85.11
2022-11-15T15:12:21.406Z,85.22
2022-11-15T15:17:29.132Z,85.13
2022-11-15T15:22:37.076Z,84.92
2022-11-15T15:27:44.803Z,85.12
2022-11-15T15:32:52.642Z,85.07
2022-11-15T15:38:00.882Z,84.98
2022-11-15T15:43:10.340Z,85.21
2022-11-15T15:48:19.471Z,85.26
2022-11-15T15:53:27.042Z,85.13
2022-11-15T15:58:35.057Z,85.24
2022-11-15T16:03:43.218Z,85.28
2022-11-15T16:09:13.723Z,85.21
2022-11-15T16:14:19.073Z,85.22
2022-11-15T16:19:26.838Z,85.31
2022-11-15T16:24:34.746Z,85.23
2022-11-15T16:29:42.436Z,85.06
2022-11-15T16:34:50.697Z,85.25
2022-11-15T16:40:00.983Z,85.11
2022-11-15T16:45:13.369Z,85.10
2022-11-15T16:50:25.253Z,85.03
2022-11-15T16:55:33.752Z,85.27
2022-11-15T17:00:41.524Z,85.29
2022-11-15T17:05:49.695Z,85.24
2022-11-15T17:10:57.663Z,85.18
2022-11-15T17:16:08.167Z,85.22
2022-11-15T17:21:18.579Z,85.31
2022-11-15T17:26:31.995Z,85.27
2022-11-15T17:31:41.894Z,85.33
2022-11-15T17:36:49.600Z,85.40
2022-11-15T17:41:57.260Z,85.22
2022-11-15T17:47:05.090Z,85.22
2022-11-15T17:52:12.829Z,85.21
2022-11-15T17:57:20.536Z,85.26
2022-11-15T18:02:28.316Z,85.28
2022-11-15T18:07:36.094Z,85.30
2022-11-15T18:12:43.785Z,85.29
2022-11-15T18:17:51.679Z,85.29
2022-11-15T18:22:59.403Z,85.26
2022-11-15T18:28:07.211Z,85.22
2022-11-15T18:33:14.896Z,85.31
2022-11-15T18:38:22.663Z,85.35
2022-11-15T18:43:30.609Z,85.46
2022-11-15T18:48:39.970Z,85.28
2022-11-15T18:53:48.763Z,85.27
2022-11-15T18:58:58.242Z,85.38
2022-11-15T19:04:08.733Z,85.50
2022-11-15T19:09:18.848Z,85.38
2022-11-15T19:14:27.947Z,85.42
2022-11-15T19:19:35.618Z,85.39
2022-11-15T19:24:43.413Z,85.44
2022-11-15T19:29:51.042Z,85.34
2022-11-15T19:34:58.762Z,85.42
2022-11-15T19:40:07.591Z,85.52
2022-11-15T19:45:15.483Z,85.45
2022-11-15T19:50:21.702Z,85.31
2022-11-15T19:55:29.385Z,85.48
2022-11-15T20:00:37.229Z,85.60
2022-11-15T20:05:44.986Z,85.53
2022-11-15T20:10:52.928Z,85.53
2022-11-15T20:16:00.926Z,85.53
2022-11-15T20:21:10.144Z,85.57
2022-11-15T20:26:19.574Z,85.55
2022-11-15T20:31:27.957Z,85.64
2022-11-15T20:36:35.890Z,85.45
2022-11-15T20:41:44.744Z,85.48
2022-11-15T20:46:53.044Z,85.30
2022-11-15T20:52:01.073Z,85.42
2022-11-15T20:57:08.999Z,85.36
2022-11-15T21:02:17.576Z,85.39
2022-11-15T21:07:26.872Z,85.44
2022-11-15T21:12:34.863Z,85.42
2022-11-15T21:17:42.801Z,85.42
2022-11-15T21:22:49.712Z,85.28
2022-11-15T21:27:57.897Z,85.34
2022-11-15T21:33:06.093Z,85.43
2022-11-15T21:38:14.635Z,85.37
2022-11-15T21:43:22.961Z,85.53
2022-11-15T21:48:34.858Z,85.53
2022-11-15T21:53:43.256Z,85.33
2022-11-15T21:58:53.808Z,85.35
2022-11-15T22:04:05.426Z,85.58
2022-11-15T22:09:18.037Z,85.56
2022-11-15T22:14:28.419Z,85.43
2022-11-15T22:19:51.596Z,85.36
2022-11-15T22:25:01.134Z,85.45
2022-11-15T22:30:11.317Z,85.39
2022-11-15T22:35:19.799Z,85.43
2022-11-15T22:40:27.972Z,85.45
2022-11-15T22:45:38.856Z,85.52
2022-11-15T22:50:48.350Z,85.56
2022-11-15T22:55:58.716Z,85.63
2022-11-15T23:01:07.420Z,85.66
2022-11-15T23:06:15.320Z,85.47
2022-11-15T23:11:40.911Z,85.55
2022-11-15T23:16:48.800Z,85.65
2022-11-15T23:22:12.621Z,85.60
2022-11-15T23:27:21.069Z,85.56
2022-11-15T23:32:46.817Z,85.51
2022-11-15T23:37:55.303Z,85.56
2022-11-15T23:43:03.282Z,85.63
2022-11-15T23:48:09.573Z,85.52
2022-11-15T23:53:17.521Z,85.61
2022-11-15T23:58:23.890Z,85.40
